Time;durP1;ratioP1;P1;durP2;ratioP2;P2;SDS_P1;SDS_P2;PMS_P1;PMS_P2;Temp;Humidity;BMP_temperature;BMP_pressure;BME280_temperature;BME280_humidity;BME280_pressure;Samples;Min_cycle;Max_cycle;Signal;HPM_P1;HPM_P2
2023/03/16 00:04:16;;;;;;;4.63;2.13;;;4.70;63.50;;;2.73;49.41;100126.78;10258347;28;97054;-85
2023/03/16 00:09:19;;;;;;;3.67;1.90;;;4.50;64.10;;;2.51;50.25;100121.53;10220814;28;96588;-85
2023/03/16 00:14:22;;;;;;;6.90;2.63;;;4.30;64.90;;;2.37;51.27;100136.53;10278999;28;96562;-85
2023/03/16 00:19:25;;;;;;;6.40;2.80;;;4.20;66.60;;;2.24;51.79;100143.66;10251787;28;96549;-85
2023/03/16 00:24:28;;;;;;;4.83;2.50;;;4.00;67.30;;;2.18;52.89;100141.50;10266676;28;96653;-84
2023/03/16 00:29:33;;;;;;;7.67;3.17;;;3.90;68.40;;;2.19;52.97;100140.56;10275614;28;96697;-85
2023/03/16 00:34:36;;;;;;;8.37;2.50;;;3.90;69.00;;;2.21;53.25;100141.25;10252293;28;97492;-84
2023/03/16 00:39:40;;;;;;;9.73;3.40;;;3.90;69.30;;;2.22;53.16;100147.34;10238314;28;97009;-84
2023/03/16 00:44:44;;;;;;;4.10;2.37;;;3.90;70.00;;;2.26;53.00;100141.75;10225965;28;98350;-84
2023/03/16 00:49:47;;;;;;;7.63;2.50;;;3.90;69.60;;;2.23;53.36;100147.25;10236348;28;97818;-84
2023/03/16 00:54:53;;;;;;;4.53;2.10;;;3.90;69.40;;;2.14;53.06;100155.78;10237635;28;97944;-86
2023/03/16 00:59:56;;;;;;;6.40;2.10;;;3.90;69.50;;;2.02;53.72;100151.47;10272514;28;96652;-85
2023/03/16 01:04:59;;;;;;;4.57;2.47;;;3.80;69.80;;;1.94;54.22;100153.81;10238401;28;96654;-85
2023/03/16 01:10:03;;;;;;;4.73;2.07;;;3.70;70.20;;;1.90;54.51;100153.22;10250922;28;96528;-85
2023/03/16 01:15:07;;;;;;;7.17;2.80;;;3.60;70.30;;;1.90;54.23;100158.44;10244426;28;97442;-85
2023/03/16 01:20:11;;;;;;;7.00;2.40;;;3.60;70.70;;;1.86;54.84;100155.22;10248154;28;96668;-86
2023/03/16 01:25:14;;;;;;;5.57;2.20;;;3.60;70.80;;;1.86;55.02;100157.03;10278707;28;98314;-86
2023/03/16 01:30:17;;;;;;;7.43;2.60;;;3.50;71.00;;;1.83;55.26;100144.97;10232683;28;96636;-86
2023/03/16 01:35:20;;;;;;;4.97;2.67;;;3.50;71.40;;;1.81;54.72;100154.72;10274649;28;96495;-86
2023/03/16 01:40:24;;;;;;;9.27;2.60;;;3.50;71.50;;;1.72;55.36;100152.78;10272963;28;96579;-85
2023/03/16 01:46:04;;;;;;;4.20;2.27;;;3.50;71.60;;;1.60;55.61;100156.28;10222188;28;97337;-85
2023/03/16 01:51:22;;;;;;;6.70;2.37;;;3.40;72.30;;;1.52;56.32;100166.50;10267475;28;97202;-85
2023/03/16 01:56:44;;;;;;;4.30;2.30;;;3.30;72.50;;;1.45;56.65;100160.88;10243837;28;98606;-85
2023/03/16 02:01:50;;;;;;;6.40;2.50;;;3.20;73.30;;;1.43;56.69;100161.91;10218872;28;96616;-83
2023/03/16 02:06:55;;;;;;;7.20;2.50;;;3.20;73.60;;;1.38;57.27;100164.88;10247447;28;98679;-83
2023/03/16 02:12:00;;;;;;;5.57;2.40;;;3.10;73.80;;;1.38;57.33;100174.50;10230659;28;96649;-83
2023/03/16 02:17:03;;;;;;;5.70;2.40;;;3.10;74.30;;;1.34;57.60;100172.09;10216338;28;98459;-83
2023/03/16 02:22:08;;;;;;;6.17;2.83;;;3.10;75.10;;;1.29;58.02;100173.38;10251119;28;96429;-82
2023/03/16 02:27:38;;;;;;;6.40;2.73;;;3.00;75.10;;;1.20;58.84;100180.13;10249510;28;96600;-83
2023/03/16 02:32:42;;;;;;;6.87;2.50;;;3.00;75.30;;;1.18;59.26;100192.47;10251559;28;96925;-84
2023/03/16 02:37:46;;;;;;;6.47;2.67;;;2.90;76.10;;;1.17;59.17;100190.78;10245412;28;98556;-84
2023/03/16 02:43:12;;;;;;;6.23;2.87;;;2.90;76.40;;;1.26;59.00;100205.00;10247416;28;96724;-84
2023/03/16 02:48:48;;;;;;;6.90;2.87;;;2.90;76.60;;;1.39;58.85;100210.22;10245098;28;97442;-84
2023/03/16 02:53:51;;;;;;;6.73;2.57;;;3.00;76.70;;;1.46;59.00;100207.06;10253899;28;96555;-84
2023/03/16 02:58:56;;;;;;;7.37;3.10;;;3.10;76.40;;;1.50;59.04;100224.22;10248702;28;97397;-84
2023/03/16 03:04:00;;;;;;;6.40;3.40;;;3.20;76.70;;;1.53;59.08;100224.00;10250607;28;96642;-85
2023/03/16 03:09:04;;;;;;;10.80;3.17;;;3.20;76.70;;;1.58;59.06;100231.53;10232611;28;96575;-85
2023/03/16 03:14:07;;;;;;;7.37;3.07;;;3.20;76.80;;;1.59;59.00;100241.06;10217851;28;96662;-85
2023/03/16 03:19:10;;;;;;;7.53;3.40;;;3.30;77.00;;;1.59;59.37;100246.31;10223602;28;96524;-85
2023/03/16 03:24:13;;;;;;;5.90;2.73;;;3.30;77.10;;;1.62;58.89;100261.81;10229382;28;96566;-85
2023/03/16 03:29:16;;;;;;;6.00;2.43;;;3.30;77.10;;;1.61;59.06;100260.94;10223594;28;96835;-84
2023/03/16 03:34:20;;;;;;;7.10;3.30;;;3.30;77.30;;;1.63;59.20;100260.84;10240728;28;96639;-85
2023/03/16 03:39:23;;;;;;;8.87;3.67;;;3.30;77.50;;;1.65;59.42;100273.84;10273054;28;97660;-84
2023/03/16 03:44:26;;;;;;;9.93;3.63;;;3.30;77.60;;;1.62;59.45;100272.28;10250461;28;98393;-85
2023/03/16 03:49:30;;;;;;;8.50;3.27;;;3.30;77.70;;;1.59;59.77;100282.97;10257173;28;98712;-83
2023/03/16 03:54:33;;;;;;;7.97;4.03;;;3.30;77.90;;;1.48;60.13;100290.75;10274367;28;97036;-85
2023/03/16 03:59:42;;;;;;;9.47;3.90;;;3.20;78.10;;;1.43;60.09;100290.22;10235038;28;97468;-84
2023/03/16 04:04:45;;;;;;;10.43;3.80;;;3.10;78.30;;;1.32;60.29;100297.06;10249118;28;97149;-85
2023/03/16 04:09:48;;;;;;;9.97;3.57;;;3.10;78.40;;;1.28;60.60;100303.44;10266236;28;96625;-85
2023/03/16 04:14:51;;;;;;;9.23;3.20;;;3.00;78.80;;;1.20;60.45;100304.91;10255463;28;96866;-84
2023/03/16 04:19:54;;;;;;;8.23;3.57;;;3.00;78.90;;;1.11;60.90;100310.78;10292526;28;98532;-84
2023/03/16 04:24:57;;;;;;;8.27;3.27;;;2.90;79.00;;;1.05;60.97;100325.94;10285972;28;96686;-84
2023/03/16 04:30:06;;;;;;;7.07;3.33;;;2.80;79.30;;;1.01;60.67;100336.72;10256822;28;97193;-84
2023/03/16 04:35:09;;;;;;;7.27;3.47;;;2.70;79.30;;;0.92;61.35;100332.97;10251943;28;96644;-84
2023/03/16 04:40:15;;;;;;;10.13;3.10;;;2.70;79.70;;;0.92;61.67;100339.97;10242304;28;96824;-84
2023/03/16 04:45:18;;;;;;;8.90;3.43;;;2.70;79.90;;;0.89;61.71;100337.56;10262061;28;96845;-84
2023/03/16 04:50:21;;;;;;;7.47;3.37;;;2.60;79.80;;;0.85;61.66;100342.16;10253533;28;96501;-84
2023/03/16 04:55:25;;;;;;;9.53;3.77;;;2.60;79.80;;;0.78;61.68;100349.59;10280709;28;98234;-85
2023/03/16 05:00:28;;;;;;;7.40;3.53;;;2.60;80.20;;;0.72;62.27;100368.31;10263269;28;96668;-85
2023/03/16 05:05:32;;;;;;;10.70;4.17;;;2.50;80.40;;;0.67;62.41;100370.38;10286208;28;96602;-84
2023/03/16 05:10:35;;;;;;;6.93;3.70;;;2.40;80.90;;;0.62;62.52;100382.06;10257313;28;96603;-85
2023/03/16 05:15:38;;;;;;;9.30;4.07;;;2.40;80.80;;;0.54;62.51;100377.34;10265693;28;98817;-86
2023/03/16 05:20:41;;;;;;;8.97;4.70;;;2.30;80.70;;;0.46;63.17;100387.44;10256439;28;96521;-85
2023/03/16 05:25:47;;;;;;;10.57;3.90;;;2.30;81.20;;;0.52;63.32;100387.06;10259733;28;96545;-86
2023/03/16 05:30:50;;;;;;;13.27;4.30;;;2.30;81.50;;;0.58;63.14;100397.13;10239755;28;96594;-83
2023/03/16 05:35:53;;;;;;;9.20;3.53;;;2.30;81.60;;;0.65;63.33;100393.16;10253783;28;96681;-90
2023/03/16 05:41:00;;;;;;;9.27;3.70;;;2.40;81.50;;;0.79;63.13;100406.19;10252749;28;98223;-86
2023/03/16 05:46:05;;;;;;;9.23;4.50;;;2.50;81.60;;;0.90;62.56;100399.41;10228952;28;97434;-87
2023/03/16 05:51:08;;;;;;;8.07;4.03;;;2.60;81.50;;;0.97;62.67;100408.53;10248789;28;97107;-87
2023/03/16 05:56:11;;;;;;;6.90;3.20;;;2.60;81.20;;;1.03;62.52;100414.22;10284389;28;96468;-86
2023/03/16 06:01:14;;;;;;;11.27;4.20;;;2.70;81.10;;;1.08;62.18;100419.16;10263809;28;96601;-86
2023/03/16 06:06:21;;;;;;;7.87;4.40;;;2.80;81.00;;;1.13;61.81;100430.13;10246808;28;96661;-86
2023/03/16 06:11:24;;;;;;;6.63;3.50;;;2.80;80.80;;;1.20;61.91;100426.19;10222939;28;98066;-86
2023/03/16 06:16:27;;;;;;;6.70;3.27;;;2.90;81.50;;;1.33;61.94;100431.44;10190152;28;96825;-86
2023/03/16 06:21:31;;;;;;;7.13;2.90;;;3.00;80.70;;;1.52;60.76;100439.72;10250977;28;96790;-86
2023/03/16 06:26:35;;;;;;;8.57;3.57;;;3.20;80.30;;;1.81;59.29;100436.88;10213447;28;97380;-86
2023/03/16 06:31:38;;;;;;;6.53;3.23;;;3.40;79.00;;;2.15;57.90;100448.47;10220120;28;96680;-85
2023/03/16 06:36:41;;;;;;;8.90;3.90;;;3.70;78.20;;;2.43;57.46;100455.22;10206611;28;96566;-86
2023/03/16 06:41:45;;;;;;;10.87;3.63;;;3.90;77.20;;;2.66;56.66;100464.06;10235996;28;96550;-85
2023/03/16 06:46:48;;;;;;;8.10;3.13;;;4.20;76.40;;;2.84;55.66;100460.09;10268370;28;97712;-86
2023/03/16 06:51:51;;;;;;;8.13;3.57;;;4.40;75.90;;;3.01;55.42;100466.75;10270722;28;96567;-86
2023/03/16 06:56:53;;;;;;;7.50;3.63;;;4.50;75.40;;;3.14;54.12;100477.19;10272761;28;98350;-86
2023/03/16 07:01:57;;;;;;;7.60;3.50;;;4.70;74.90;;;3.30;53.93;100479.50;10218835;28;96582;-86
2023/03/16 07:07:00;;;;;;;7.73;3.27;;;4.80;74.30;;;3.46;53.88;100494.00;10243698;28;96949;-87
2023/03/16 07:12:04;;;;;;;7.20;3.30;;;5.00;74.00;;;3.68;53.43;100497.66;10211086;28;96723;-86
2023/03/16 07:17:07;;;;;;;7.63;3.10;;;5.20;73.60;;;3.86;51.79;100501.50;10246550;28;96884;-88
2023/03/16 07:22:11;;;;;;;5.27;2.30;;;5.40;71.40;;;4.09;51.25;100509.41;10271484;28;97137;-87
2023/03/16 07:27:14;;;;;;;8.07;3.13;;;5.60;71.00;;;4.28;49.09;100513.13;10233284;28;96584;-87
2023/03/16 07:32:18;;;;;;;8.20;3.43;;;5.80;69.10;;;4.47;48.16;100517.78;10210131;28;96577;-87
2023/03/16 07:37:21;;;;;;;4.70;2.50;;;6.00;67.00;;;4.62;47.48;100520.13;10210232;28;96730;-86
2023/03/16 07:42:28;;;;;;;7.77;2.93;;;6.10;66.10;;;4.81;47.68;100517.75;10216023;28;98981;-86
2023/03/16 07:47:32;;;;;;;5.23;2.23;;;6.30;66.80;;;5.03;46.72;100522.91;10272925;28;99083;-86
2023/03/16 07:52:35;;;;;;;6.97;2.40;;;6.50;65.70;;;5.18;45.57;100525.28;10238495;28;96620;-86
2023/03/16 07:57:41;;;;;;;6.17;2.63;;;6.60;64.20;;;5.32;46.37;100523.19;10224671;28;96763;-87
2023/03/16 08:02:44;;;;;;;4.63;2.37;;;6.80;64.90;;;5.53;45.47;100523.22;10199313;28;96552;-87
2023/03/16 08:07:47;;;;;;;7.63;3.33;;;7.00;63.60;;;5.74;45.59;100525.84;10254264;28;96535;-87
2023/03/16 08:12:50;;;;;;;8.00;2.80;;;7.20;64.20;;;6.49;45.34;100524.75;10267774;28;98110;-87
2023/03/16 08:17:54;;;;;;;7.37;2.77;;;7.50;64.70;;;7.29;42.88;100528.25;10252531;28;97807;-88
2023/03/16 08:22:57;;;;;;;5.40;2.90;;;8.00;63.00;;;7.58;41.96;100529.06;10216926;28;96567;-88
2023/03/16 08:28:01;;;;;;;6.97;2.53;;;8.40;62.10;;;8.26;40.58;100527.09;10217991;28;98218;-88
2023/03/16 08:33:04;;;;;;;7.57;3.27;;;8.60;59.80;;;8.64;39.74;100529.78;10210980;28;96618;-88
2023/03/16 08:38:07;;;;;;;5.83;3.10;;;8.80;60.40;;;9.07;37.79;100531.75;10235353;28;96522;-88
2023/03/16 08:43:10;;;;;;;4.77;3.07;;;9.20;58.90;;;9.52;37.89;100531.69;10272322;28;96586;-86
2023/03/16 08:48:14;;;;;;;6.43;3.37;;;9.50;59.30;;;9.89;36.46;100534.13;10213464;28;96619;-87
2023/03/16 08:53:17;;;;;;;6.57;3.33;;;10.00;57.20;;;9.89;36.62;100541.25;10226428;28;96587;-86
2023/03/16 08:58:21;;;;;;;5.70;3.20;;;10.10;57.00;;;9.83;36.35;100542.69;10232256;28;96554;-86
2023/03/16 09:03:25;;;;;;;5.43;2.80;;;10.10;56.90;;;10.03;36.06;100555.81;10239489;28;98860;-87
2023/03/16 09:08:28;;;;;;;4.87;2.30;;;10.30;56.40;;;9.93;36.15;100545.28;10212780;28;96835;-85
2023/03/16 09:13:32;;;;;;;5.17;2.90;;;10.40;55.60;;;10.12;36.12;100553.03;10222218;28;96531;-86
2023/03/16 09:18:35;;;;;;;5.17;2.73;;;10.70;55.60;;;10.47;35.65;100551.28;10220369;28;96598;-86
2023/03/16 09:23:41;;;;;;;5.22;2.75;;;11.00;54.80;;;10.45;34.75;100546.13;10231426;28;96613;-85
2023/03/16 09:28:45;;;;;;;3.95;2.30;;;11.10;54.50;;;10.47;34.79;100553.94;10248364;28;98226;-86
2023/03/16 09:33:48;;;;;;;5.37;2.40;;;11.20;53.40;;;9.97;33.63;100567.03;10242843;28;96640;-85
2023/03/16 09:38:52;;;;;;;5.80;2.60;;;10.80;51.40;;;9.42;34.84;100568.09;10251447;28;96805;-88
2023/03/16 09:44:40;;;;;;;4.00;1.93;;;10.50;51.60;;;9.22;35.83;100564.72;10253840;28;96976;-87
2023/03/16 09:49:47;;;;;;;5.00;2.47;;;10.50;53.00;;;9.57;35.41;100565.72;10242336;28;98417;-86
2023/03/16 09:55:21;;;;;;;3.93;2.20;;;10.90;52.60;;;10.19;33.94;100561.19;10270237;28;96685;-85
2023/03/16 10:00:51;;;;;;;4.70;2.28;;;11.70;51.90;;;10.82;32.24;100560.06;10240994;28;96629;-85
2023/03/16 10:06:05;;;;;;;4.93;2.53;;;12.30;49.90;;;11.66;31.19;100551.09;10260952;28;96609;-86
2023/03/16 10:11:37;;;;;;;4.63;2.08;;;12.90;47.70;;;12.04;29.95;100566.41;10248276;28;96574;-86
2023/03/16 10:16:52;;;;;;;4.15;1.92;;;13.10;46.10;;;11.75;30.49;100550.06;10213780;28;96676;-85
2023/03/16 10:21:59;;;;;;;3.97;2.08;;;13.00;47.50;;;11.83;29.21;100555.44;10274394;28;96583;-86
2023/03/16 10:27:05;;;;;;;6.45;2.00;;;13.10;45.50;;;12.05;30.17;100549.44;10265721;28;97939;-86
2023/03/16 10:32:15;;;;;;;3.60;1.75;;;13.20;46.40;;;12.30;28.85;100550.22;10266114;28;97089;-85
2023/03/16 10:37:20;;;;;;;5.03;1.85;;;13.60;45.30;;;12.62;29.44;100547.63;10244774;28;96596;-86
2023/03/16 10:42:23;;;;;;;5.43;2.03;;;14.00;46.00;;;13.40;28.87;100539.53;10250139;28;97518;-87
2023/03/16 10:47:32;;;;;;;5.78;1.80;;;14.70;45.90;;;13.55;27.05;100537.75;10249390;28;97553;-88
2023/03/16 10:52:48;;;;;;;6.95;3.40;;;15.00;43.80;;;12.73;26.84;100539.25;10264773;28;96513;-87
2023/03/16 10:57:54;;;;;;;3.38;1.65;;;14.30;41.40;;;13.05;27.93;100532.91;10213001;28;96778;-90
2023/03/16 11:02:58;;;;;;;2.75;1.63;;;14.30;43.00;;;13.60;27.18;100538.03;10239158;28;96582;-88
2023/03/16 11:08:14;;;;;;;3.08;1.50;;;14.90;43.00;;;14.37;24.88;100520.94;10257380;28;96553;-87
2023/03/16 11:13:19;;;;;;;3.47;1.50;;;15.80;41.40;;;14.47;23.80;100523.38;10200276;28;96601;-90
2023/03/16 11:18:47;;;;;;;4.50;1.55;;;16.20;39.70;;;14.29;23.00;100516.53;10203532;28;97367;-87
2023/03/16 11:23:56;;;;;;;2.80;1.20;;;16.00;38.20;;;14.52;22.16;100521.81;10193475;28;96685;-90
2023/03/16 11:29:37;;;;;;;3.17;1.40;;;16.20;36.80;;;14.71;22.05;100513.22;10247967;28;96553;-90
2023/03/16 11:34:42;;;;;;;2.30;1.30;;;16.40;36.40;;;14.70;21.90;100516.91;10281624;28;96529;-91
2023/03/16 11:40:35;;;;;;;2.97;1.10;;;16.30;35.80;;;14.91;21.39;100515.28;10236765;28;96529;-90
2023/03/16 11:46:06;;;;;;;1.88;1.00;;;16.40;35.20;;;15.44;20.19;100508.63;10215808;28;98076;-87
2023/03/16 11:51:47;;;;;;;2.45;0.90;;;17.10;34.70;;;15.51;20.31;100496.13;10240539;28;96984;-87
2023/03/16 11:57:00;;;;;;;3.85;0.95;;;17.20;33.70;;;15.85;19.11;100502.63;10255915;28;96615;-86
2023/03/16 12:02:28;;;;;;;2.58;1.20;;;17.40;32.80;;;15.51;18.79;100495.31;10254898;28;98950;-87
2023/03/16 12:07:47;;;;;;;3.75;1.80;;;17.30;32.30;;;15.54;18.96;100489.56;10246903;28;96737;-87
2023/03/16 12:13:00;;;;;;;3.03;1.50;;;17.10;32.40;;;15.62;18.72;100488.59;10223697;28;96918;-88
2023/03/16 12:18:23;;;;;;;2.70;1.15;;;17.20;31.50;;;15.64;18.11;100486.56;10274882;28;97214;-88
2023/03/16 12:23:51;;;;;;;3.95;1.23;;;17.20;32.00;;;15.02;18.34;100492.56;10252818;28;96522;-88
2023/03/16 12:28:56;;;;;;;2.67;1.02;;;16.60;31.20;;;14.86;19.41;100488.25;10231425;28;96620;-88
2023/03/16 12:34:33;;;;;;;3.58;1.35;;;16.50;32.40;;;14.83;19.82;100489.47;10250509;28;96647;-88
2023/03/16 12:40:07;;;;;;;3.97;1.10;;;16.50;32.70;;;14.43;20.13;100490.78;10237199;28;96605;-88
2023/03/16 12:45:26;;;;;;;2.75;1.20;;;16.30;32.60;;;14.16;20.01;100490.44;10220012;28;96763;-89
2023/03/16 12:50:30;;;;;;;3.17;1.07;;;16.10;32.40;;;14.12;20.39;100483.81;10272153;28;96687;-89
2023/03/16 12:55:33;;;;;;;3.13;1.50;;;16.20;32.60;;;13.91;21.24;100497.91;10272104;28;96904;-89
2023/03/16 13:00:41;;;;;;;4.80;1.95;;;16.00;33.30;;;13.77;20.99;100505.88;10283872;28;96889;-89
2023/03/16 13:05:51;;;;;;;2.97;1.20;;;15.70;33.10;;;13.57;21.30;100495.69;10214045;28;96669;-88
2023/03/16 13:11:04;;;;;;;2.67;1.20;;;15.50;33.50;;;13.61;21.64;100497.00;10233824;28;96816;-88
2023/03/16 13:16:35;;;;;;;6.00;1.58;;;15.40;33.70;;;13.01;21.08;100499.56;10236105;28;96540;-88
2023/03/16 13:21:41;;;;;;;2.40;1.13;;;15.10;32.90;;;12.87;21.55;100493.16;10212337;28;96620;-89
2023/03/16 13:27:05;;;;;;;3.88;1.60;;;14.80;33.60;;;12.84;22.00;100490.84;10250728;28;96756;-88
2023/03/16 13:32:18;;;;;;;3.80;1.40;;;14.70;33.90;;;12.60;20.84;100502.47;10271294;28;98238;-88
2023/03/16 13:37:23;;;;;;;2.65;1.10;;;14.40;32.80;;;12.58;20.54;100502.63;10282797;28;96549;-88
2023/03/16 13:42:32;;;;;;;3.55;1.10;;;14.30;32.90;;;12.45;20.62;100504.19;10227587;28;96493;-88
2023/03/16 13:47:34;;;;;;;2.03;0.90;;;14.30;32.90;;;12.58;21.07;100499.13;10228944;28;96636;-88
2023/03/16 13:52:42;;;;;;;1.80;0.88;;;14.50;32.80;;;12.12;20.60;100493.66;10243913;28;97447;-88
2023/03/16 13:57:46;;;;;;;1.73;0.90;;;14.10;32.50;;;11.93;21.77;100497.50;10252185;28;96613;-88
2023/03/16 14:02:57;;;;;;;7.57;3.55;;;13.80;33.50;;;12.00;22.62;100495.84;10223518;28;96787;-87
2023/03/16 14:08:01;;;;;;;;;;;14.00;34.40;;;11.95;22.97;100505.34;10265346;28;96803;-89
2023/03/16 14:13:26;;;;;;;2.50;1.45;;;14.00;34.60;;;11.98;21.50;100502.31;10274723;28;96753;-89
2023/03/16 14:18:45;;;;;;;3.10;1.30;;;13.90;33.40;;;12.03;22.46;100506.13;10255676;28;96603;-88
2023/03/16 14:24:03;;;;;;;7.22;3.13;;;14.00;34.10;;;12.57;23.11;100503.63;10249279;28;97871;-87
2023/03/16 14:29:26;;;;;;;3.92;1.25;;;14.50;34.70;;;12.96;21.93;100492.13;10235684;28;96547;-88
2023/03/16 14:34:41;;;;;;;3.38;1.90;;;15.10;34.20;;;12.94;22.30;100504.78;10248867;28;96585;-87
2023/03/16 14:39:45;;;;;;;3.95;1.98;;;15.20;33.90;;;12.65;21.99;100505.41;10245960;28;96738;-88
2023/03/16 14:44:49;;;;;;;3.33;1.15;;;14.80;33.90;;;12.42;21.81;100515.22;10249546;28;96543;-86
2023/03/16 14:49:52;;;;;;;2.60;1.10;;;14.50;33.40;;;12.37;21.85;100515.72;10243151;28;98421;-88
2023/03/16 14:54:56;;;;;;;5.05;2.35;;;14.30;33.70;;;12.66;22.24;100525.78;10236450;28;98783;-87
2023/03/16 14:59:59;;;;;;;3.08;1.30;;;14.60;34.10;;;12.80;21.58;100525.03;10231398;28;96580;-85
2023/03/16 15:05:04;;;;;;;3.30;1.40;;;14.90;33.40;;;12.94;21.88;100526.13;10282409;28;96642;-86
2023/03/16 15:10:27;;;;;;;5.75;4.10;;;15.10;33.70;;;13.36;21.54;100531.06;10233201;28;96663;-85
2023/03/16 15:15:31;;;;;;;3.65;2.20;;;15.50;33.40;;;13.66;21.41;100533.81;10244150;28;96622;-85
2023/03/16 15:20:44;;;;;;;4.85;2.97;;;15.90;33.20;;;13.57;20.66;100535.75;10226847;28;96709;-86
2023/03/16 15:25:48;;;;;;;3.58;2.05;;;15.80;32.50;;;13.11;20.65;100526.84;10251164;28;97462;-85
2023/03/16 15:30:57;;;;;;;3.58;1.60;;;15.20;32.60;;;12.47;20.42;100545.66;10248725;28;96605;-84
2023/03/16 15:36:12;;;;;;;2.93;1.30;;;14.30;32.60;;;11.76;19.68;100546.44;10256960;28;97119;-86
2023/03/16 15:41:16;;;;;;;2.63;1.10;;;13.50;32.00;;;11.18;20.26;100547.38;10273226;28;96791;-85
2023/03/16 15:46:20;;;;;;;3.87;1.63;;;12.80;32.20;;;10.70;22.22;100572.81;10271793;28;96441;-85
2023/03/16 15:51:28;;;;;;;5.40;1.97;;;12.30;33.90;;;10.26;23.77;100578.22;10229279;28;96881;-85
2023/03/16 15:56:36;;;;;;;5.20;2.10;;;11.80;35.60;;;9.92;24.42;100578.94;10246803;28;98010;-86
2023/03/16 16:01:55;;;;;;;4.07;1.90;;;11.40;36.00;;;9.55;24.45;100589.75;10255162;28;96623;-85
2023/03/16 16:07:00;;;;;;;4.97;2.77;;;11.00;36.00;;;9.24;23.02;100591.94;10256894;28;97054;-86
2023/03/16 16:12:04;;;;;;;4.97;2.40;;;10.70;34.70;;;8.93;22.55;100596.69;10273396;28;96787;-86
2023/03/16 16:17:17;;;;;;;2.83;1.63;;;10.50;34.40;;;8.64;23.14;100604.81;10249795;28;98473;-86
2023/03/16 16:22:24;;;;;;;3.77;2.00;;;10.20;34.70;;;8.32;23.58;100615.72;10237867;28;96862;-85
2023/03/16 16:27:27;;;;;;;7.97;4.87;;;9.90;34.90;;;8.02;24.01;100616.75;10214360;28;96446;-86
2023/03/16 16:32:30;;;;;;;3.90;2.13;;;9.60;35.30;;;7.74;24.45;100627.22;10242039;28;96571;-86
2023/03/16 16:37:33;;;;;;;8.50;1.77;;;9.40;35.60;;;7.49;24.78;100633.03;10243546;28;97451;-86
2023/03/16 16:42:38;;;;;;;18.37;11.73;;;9.10;35.70;;;7.21;25.03;100651.38;10238726;28;96705;-86
2023/03/16 16:47:41;;;;;;;19.00;12.53;;;8.90;36.10;;;6.92;25.71;100647.78;10267494;28;96547;-86
2023/03/16 16:52:44;;;;;;;17.13;7.30;;;8.70;36.60;;;6.63;26.40;100661.69;10254674;28;96464;-87
2023/03/16 16:57:51;;;;;;;8.23;4.20;;;8.40;37.00;;;6.30;26.80;100667.22;10222392;28;96662;-86
2023/03/16 17:02:57;;;;;;;16.37;6.80;;;8.10;37.30;;;5.93;27.95;100686.06;10235893;28;97395;-88
2023/03/16 17:08:04;;;;;;;18.50;8.30;;;7.80;38.00;;;5.57;28.51;100682.81;10210221;28;97334;-87
2023/03/16 17:13:19;;;;;;;20.90;8.67;;;7.50;38.40;;;5.30;29.19;100695.56;10236835;28;97445;-87
2023/03/16 17:18:23;;;;;;;21.23;9.27;;;7.20;39.20;;;5.12;30.92;100697.03;10217525;28;96735;-87
2023/03/16 17:23:35;;;;;;;19.20;7.97;;;7.00;40.20;;;5.01;32.07;100703.13;10230394;28;97892;-87
2023/03/16 17:28:52;;;;;;;13.53;6.37;;;6.80;40.90;;;4.88;32.83;100705.88;10193684;28;96623;-88
2023/03/16 17:33:56;;;;;;;14.40;6.23;;;6.70;42.00;;;4.72;33.20;100706.22;10207052;28;96582;-88
2023/03/16 17:39:00;;;;;;;15.17;7.50;;;6.60;42.00;;;4.53;33.96;100703.31;10210750;28;96973;-88
2023/03/16 17:44:10;;;;;;;23.30;11.80;;;6.40;42.50;;;4.34;34.72;100713.56;10226480;28;96787;-88
2023/03/16 17:49:17;;;;;;;27.67;12.57;;;6.20;43.20;;;4.13;35.38;100714.19;10229068;28;96795;-89
2023/03/16 17:54:20;;;;;;;27.37;13.47;;;6.00;44.00;;;3.98;36.35;100721.44;10229746;28;96720;-87
2023/03/16 17:59:24;;;;;;;27.33;11.77;;;5.90;44.30;;;3.83;36.87;100722.56;10254267;28;98316;-89
2023/03/16 18:04:27;;;;;;;25.40;11.63;;;5.70;44.70;;;3.68;37.02;100728.94;10221763;28;98667;-90
2023/03/16 18:09:30;;;;;;;19.63;9.20;;;5.60;45.20;;;3.55;37.36;100736.03;10212316;28;96370;-90
2023/03/16 18:14:37;;;;;;;19.43;9.07;;;5.40;45.40;;;3.42;37.86;100736.06;10210141;28;96458;-90
2023/03/16 18:19:41;;;;;;;20.87;8.93;;;5.30;46.00;;;3.33;38.15;100748.03;10179540;28;96553;-88
2023/03/16 18:24:45;;;;;;;15.43;6.50;;;5.20;46.40;;;3.29;38.83;100743.09;10232109;28;96557;-90
2023/03/16 18:29:48;;;;;;;11.50;5.87;;;5.10;46.60;;;3.20;39.83;100753.31;10273197;28;96769;-90
2023/03/16 18:34:52;;;;;;;12.10;6.07;;;5.10;47.40;;;3.07;40.93;100760.38;10256679;28;96501;-89
2023/03/16 18:39:55;;;;;;;22.63;12.30;;;4.90;48.10;;;2.90;41.67;100763.31;10218694;28;96733;-89
2023/03/16 18:44:59;;;;;;;49.63;21.67;;;4.80;48.60;;;2.73;42.91;100769.72;10234305;28;98237;-90
2023/03/16 18:50:03;;;;;;;68.00;27.67;;;4.60;50.00;;;2.54;43.57;100777.16;10195824;28;96504;-90
2023/03/16 18:55:19;;;;;;;67.10;30.23;;;4.40;50.10;;;2.34;43.99;100786.31;10223400;28;97007;-88
2023/03/16 19:00:28;;;;;;;43.33;19.93;;;4.20;51.10;;;2.15;44.43;100786.69;10250677;28;96525;-89
2023/03/16 19:05:35;;;;;;;35.67;18.73;;;4.00;51.20;;;2.00;45.54;100808.66;10224087;28;96773;-89
2023/03/16 19:10:47;;;;;;;53.03;23.27;;;3.90;52.90;;;1.86;46.07;100828.72;10194641;28;96616;-89
2023/03/16 19:15:56;;;;;;;42.40;22.65;;;3.70;54.50;;;1.76;46.50;100827.63;10214579;28;96555;-90
2023/03/16 19:21:00;;;;;;;61.43;26.73;;;3.60;54.50;;;1.69;46.31;100849.91;10245817;28;96716;-91
2023/03/16 19:26:03;;;;;;;76.47;31.50;;;3.50;54.10;;;1.57;47.40;100850.66;10231195;28;97309;-89
2023/03/16 19:31:26;;;;;;;78.80;32.60;;;3.40;54.90;;;1.43;47.27;100868.97;10214882;28;98121;-91
2023/03/16 19:36:32;;;;;;;29.47;13.20;;;3.30;55.00;;;1.31;48.37;100875.78;10227821;28;97022;-85
2023/03/16 19:41:37;;;;;;;25.10;12.40;;;3.20;55.20;;;1.29;48.07;100878.50;10238443;28;96670;-88
2023/03/16 19:46:41;;;;;;;24.03;11.33;;;3.10;55.20;;;1.19;48.82;100895.69;10225214;28;96620;-88
2023/03/16 19:51:46;;;;;;;23.20;11.20;;;3.10;56.60;;;1.03;49.30;100900.16;10258621;28;96553;-91
2023/03/16 19:56:54;;;;;;;32.03;12.00;;;2.90;56.00;;;0.86;49.43;100897.69;10239587;28;96613;-90
2023/03/16 20:01:58;;;;;;;24.93;12.10;;;2.80;56.50;;;0.71;49.81;100909.84;10250589;28;97456;-89
2023/03/16 20:07:01;;;;;;;25.80;12.17;;;2.60;56.30;;;0.56;50.22;100910.75;10257837;28;96665;-90
2023/03/16 20:12:04;;;;;;;36.00;18.87;;;2.50;56.90;;;0.37;50.98;100914.38;10256226;28;96528;-89
2023/03/16 20:17:18;;;;;;;31.27;14.27;;;2.40;57.40;;;0.25;51.80;100920.28;10257264;28;96594;-89
2023/03/16 20:22:24;;;;;;;23.23;11.30;;;2.20;57.70;;;0.12;51.97;100930.59;10221335;28;98410;-90
2023/03/16 20:27:27;;;;;;;19.43;10.73;;;2.10;58.20;;;0.04;52.33;100931.91;10240319;28;96826;-91
2023/03/16 20:32:34;;;;;;;18.20;8.77;;;2.00;58.70;;;-0.06;53.39;100940.25;10233479;28;96529;-92
2023/03/16 20:37:38;;;;;;;19.53;9.10;;;1.90;59.70;;;-0.17;54.17;100939.97;10237842;28;97520;-92
2023/03/16 20:42:41;;;;;;;14.60;7.40;;;1.80;60.50;;;-0.24;54.29;100950.81;10246987;28;97262;-92
2023/03/16 20:47:45;;;;;;;13.57;6.47;;;1.70;60.60;;;-0.36;54.34;100953.16;10224551;28;96541;-91
2023/03/16 20:52:48;;;;;;;16.63;7.57;;;1.60;60.70;;;-0.46;55.62;100946.72;10226209;28;98990;-90
2023/03/16 20:57:52;;;;;;;15.00;6.63;;;1.50;62.00;;;-0.55;55.60;100952.41;10292603;28;96677;-91
2023/03/16 21:02:57;;;;;;;14.70;6.40;;;1.40;62.00;;;-0.64;56.02;100950.28;10254137;28;98032;-91
2023/03/16 21:08:00;;;;;;;12.43;5.73;;;1.30;62.40;;;-0.73;56.64;100958.56;10224267;28;97025;-90
2023/03/16 21:13:03;;;;;;;17.63;7.23;;;1.20;63.40;;;-0.82;57.34;100957.25;10236398;28;98219;-90
2023/03/16 21:18:14;;;;;;;17.20;6.93;;;1.20;64.20;;;-0.89;57.27;100972.38;10247439;28;96581;-90
2023/03/16 21:23:20;;;;;;;36.53;14.30;;;1.10;63.60;;;-0.97;57.46;100976.28;10250355;28;97019;-90